createdAt,value
2022-12-11T01:44:01.998Z,90.50
2022-12-11T01:47:17.236Z,90.70
2022-12-11T01:50:06.426Z,90.50
2022-12-11T01:52:55.270Z,90.00
2022-12-11T01:55:45.836Z,89.30
2022-12-11T01:58:36.506Z,89.30
2022-12-11T02:01:33.859Z,89.60
2022-12-11T02:04:23.218Z,89.50
2022-12-11T02:07:12.096Z,89.70
2022-12-11T02:10:00.679Z,89.70
2022-12-11T02:12:58.779Z,89.90
2022-12-11T02:15:52.707Z,89.60
2022-12-11T02:18:49.010Z,90.00
2022-12-11T02:21:42.516Z,90.00
2022-12-11T02:24:48.371Z,89.80
2022-12-11T02:27:43.617Z,89.50
2022-12-11T02:30:36.010Z,89.40
2022-12-11T02:33:35.216Z,88.50
2022-12-11T02:36:27.498Z,88.20
2022-12-11T02:39:18.638Z,87.70
2022-12-11T02:42:09.437Z,88.10
2022-12-11T02:45:00.337Z,87.80
2022-12-11T02:47:51.186Z,88.20
2022-12-11T02:50:45.039Z,87.90
2022-12-11T02:53:37.008Z,88.60
2022-12-11T02:56:31.986Z,88.20
2022-12-11T02:59:25.077Z,88.40
2022-12-11T03:02:14.831Z,88.00
2022-12-11T03:05:05.096Z,87.30
2022-12-11T03:07:53.742Z,87.60
2022-12-11T03:10:42.326Z,87.70
2022-12-11T03:13:31.665Z,87.80
2022-12-11T03:16:30.868Z,87.50
2022-12-11T03:19:36.659Z,86.30
2022-12-11T03:22:35.627Z,86.10
2022-12-11T03:25:28.566Z,86.80
2022-12-11T03:28:21.149Z,86.50
2022-12-11T03:31:14.104Z,87.10
2022-12-11T03:34:05.237Z,87.20
2022-12-11T03:36:56.941Z,86.60
2022-12-11T03:39:51.058Z,87.00
2022-12-11T03:42:41.496Z,86.40
2022-12-11T03:45:31.506Z,86.20
2022-12-11T03:48:22.114Z,85.70
2022-12-11T03:51:11.326Z,85.20
2022-12-11T03:54:00.956Z,85.90
2022-12-11T03:56:54.718Z,85.50
2022-12-11T03:59:43.496Z,85.50
2022-12-11T04:02:32.147Z,85.60
2022-12-11T04:05:29.838Z,86.40
2022-12-11T04:08:20.771Z,86.20
2022-12-11T04:11:27.009Z,85.80
2022-12-11T04:14:46.237Z,86.60
2022-12-11T04:17:51.658Z,86.50
2022-12-11T04:20:58.110Z,85.90
2022-12-11T04:24:04.498Z,85.10
2022-12-11T04:26:53.428Z,85.20
2022-12-11T04:29:43.751Z,85.50
2022-12-11T04:32:32.607Z,85.20
2022-12-11T04:35:22.527Z,84.80
2022-12-11T04:38:11.428Z,85.20
2022-12-11T04:41:01.143Z,85.10
2022-12-11T04:43:50.046Z,85.00
2022-12-11T04:46:40.465Z,85.40
2022-12-11T04:49:29.417Z,85.00
2022-12-11T04:52:19.738Z,85.50
2022-12-11T04:55:09.977Z,86.40
2022-12-11T04:57:59.049Z,86.60
2022-12-11T05:00:47.896Z,86.70
2022-12-11T05:03:38.209Z,86.80
2022-12-11T05:06:27.149Z,87.00
2022-12-11T05:09:15.978Z,87.50
2022-12-11T05:12:05.228Z,87.20
2022-12-11T05:14:54.608Z,87.20
2022-12-11T05:17:43.468Z,87.30
2022-12-11T05:20:33.718Z,87.30
2022-12-11T05:23:22.515Z,87.50
2022-12-11T05:26:14.404Z,87.90
2022-12-11T05:29:03.282Z,87.70
2022-12-11T05:31:52.107Z,87.70
2022-12-11T05:34:41.028Z,88.30
2022-12-11T05:37:31.478Z,88.00
2022-12-11T05:40:20.339Z,87.30
2022-12-11T05:43:09.248Z,87.30
2022-12-11T05:45:58.608Z,87.70
2022-12-11T05:48:49.658Z,88.10
2022-12-11T05:51:39.761Z,88.40
2022-12-11T05:54:30.062Z,88.20
2022-12-11T05:57:18.967Z,89.00
2022-12-11T06:00:08.841Z,88.40
2022-12-11T06:02:57.742Z,88.80
2022-12-11T06:05:46.713Z,88.40
2022-12-11T06:08:36.622Z,88.50
2022-12-11T06:11:28.602Z,88.80
2022-12-11T06:14:17.462Z,89.20
2022-12-11T06:17:06.261Z,89.50
2022-12-11T06:19:55.059Z,89.90
2022-12-11T06:22:43.868Z,89.70
2022-12-11T06:25:32.988Z,90.30
2022-12-11T06:28:23.208Z,90.00
2022-12-11T06:31:12.630Z,89.80
2022-12-11T06:34:01.529Z,89.90
2022-12-11T06:36:50.327Z,89.90
2022-12-11T06:39:39.138Z,89.50
2022-12-11T06:42:27.938Z,89.40
2022-12-11T06:45:18.264Z,89.80
2022-12-11T06:48:07.468Z,90.00
2022-12-11T06:51:25.917Z,90.40
2022-12-11T06:54:15.219Z,89.80
2022-12-11T06:57:04.081Z,89.30
2022-12-11T06:59:54.901Z,89.10
2022-12-11T07:02:43.759Z,88.50
2022-12-11T07:05:32.751Z,89.00
2022-12-11T07:08:23.186Z,89.40
2022-12-11T07:11:14.078Z,89.90
2022-12-11T07:14:02.841Z,89.80
2022-12-11T07:16:51.726Z,89.30
2022-12-11T07:19:40.944Z,89.50
2022-12-11T07:22:30.708Z,89.80
2022-12-11T07:25:21.042Z,90.10
2022-12-11T07:28:15.139Z,89.90
2022-12-11T07:31:07.805Z,90.20
2022-12-11T07:33:57.109Z,90.00
2022-12-11T07:36:46.068Z,89.90
2022-12-11T07:39:34.961Z,90.20
2022-12-11T07:42:25.271Z,90.20
2022-12-11T07:45:14.362Z,89.90
2022-12-11T07:48:03.209Z,89.90
2022-12-11T07:50:52.020Z,89.50
2022-12-11T07:53:40.841Z,89.20
2022-12-11T07:56:31.178Z,89.20
2022-12-11T07:59:21.441Z,89.10
2022-12-11T08:02:12.102Z,89.00
2022-12-11T08:05:00.990Z,89.30
2022-12-11T08:07:49.859Z,89.60
2022-12-11T08:10:38.688Z,89.50
2022-12-11T08:13:27.708Z,89.40
2022-12-11T08:16:18.682Z,89.30
2022-12-11T08:19:07.607Z,89.30
2022-12-11T08:21:56.469Z,88.50
2022-12-11T08:24:45.327Z,87.70
2022-12-11T08:27:34.190Z,86.00
2022-12-11T08:30:23.098Z,85.30
2022-12-11T08:33:13.383Z,84.00
2022-12-11T08:36:04.803Z,84.10
2022-12-11T08:38:55.508Z,85.40
2022-12-11T08:41:44.378Z,85.50
2022-12-11T08:44:33.181Z,86.00
2022-12-11T08:47:21.998Z,86.40
2022-12-11T08:50:12.499Z,87.00
2022-12-11T08:53:01.373Z,86.00
2022-12-11T08:55:50.219Z,85.50
2022-12-11T08:58:39.409Z,85.50
2022-12-11T09:01:28.974Z,85.10
2022-12-11T09:04:17.818Z,84.50
2022-12-11T09:07:08.079Z,83.60
2022-12-11T09:09:57.392Z,83.60
2022-12-11T09:12:46.278Z,83.10
2022-12-11T09:15:36.246Z,80.90
2022-12-11T09:18:25.078Z,80.40
2022-12-11T09:21:16.557Z,79.10
2022-12-11T09:24:07.551Z,77.50
2022-12-11T09:26:56.328Z,76.80
2022-12-11T09:29:45.108Z,75.80
2022-12-11T09:32:34.078Z,74.40
2022-12-11T09:35:22.930Z,74.90
2022-12-11T09:38:12.059Z,74.10
2022-12-11T09:41:02.622Z,75.00
2022-12-11T09:44:00.202Z,74.90
2022-12-11T09:46:50.254Z,72.20
2022-12-11T09:49:43.439Z,66.20
2022-12-11T09:52:37.058Z,68.80
2022-12-11T09:55:29.349Z,70.20
2022-12-11T09:58:26.158Z,71.60
2022-12-11T10:01:23.498Z,70.60
2022-12-11T10:04:27.614Z,71.50
2022-12-11T10:07:21.830Z,70.80
2022-12-11T10:10:20.049Z,71.40
2022-12-11T10:13:23.648Z,71.10
2022-12-11T10:16:25.019Z,71.80
2022-12-11T10:19:19.571Z,71.90
2022-12-11T10:22:15.574Z,70.30
2022-12-11T10:25:11.796Z,69.40
2022-12-11T10:28:10.261Z,69.10
2022-12-11T10:31:11.544Z,68.50
2022-12-11T10:34:04.448Z,70.10
2022-12-11T10:37:00.324Z,70.70
2022-12-11T10:52:21.230Z,65.60
2022-12-11T10:55:21.739Z,67.20
2022-12-11T10:58:20.022Z,67.60
2022-12-11T11:09:33.252Z,65.00
2022-12-11T11:12:26.404Z,66.10
2022-12-11T11:15:17.541Z,67.40
2022-12-11T11:18:13.328Z,69.10
2022-12-11T11:21:02.993Z,69.90
2022-12-11T11:23:53.667Z,69.90
2022-12-11T11:27:12.129Z,69.70
2022-12-11T11:29:55.746Z,71.40
2022-12-11T11:32:44.911Z,71.70
2022-12-11T11:35:34.418Z,71.80
2022-12-11T11:38:26.413Z,72.20
2022-12-11T11:41:20.328Z,71.60
2022-12-11T11:44:14.818Z,69.70
2022-12-11T11:47:10.858Z,71.60
2022-12-11T11:50:07.328Z,72.30
2022-12-11T11:53:03.839Z,72.30
2022-12-11T11:56:02.189Z,72.10
2022-12-11T11:59:08.624Z,72.10
2022-12-11T12:01:59.862Z,72.70
2022-12-11T12:04:51.407Z,70.40
2022-12-11T12:07:48.165Z,70.50
2022-12-11T12:10:43.110Z,71.60
2022-12-11T12:13:55.585Z,70.80
2022-12-11T12:16:53.815Z,71.90
2022-12-11T12:19:53.918Z,67.00
2022-12-11T12:22:56.918Z,68.00
2022-12-11T12:25:51.784Z,70.50
2022-12-11T12:28:46.473Z,67.30
2022-12-11T12:31:52.504Z,67.00
2022-12-11T12:35:03.209Z,68.60
2022-12-11T12:37:58.868Z,66.90
2022-12-11T12:40:59.158Z,66.90
2022-12-11T12:44:04.036Z,66.50
2022-12-11T12:47:00.760Z,64.90
2022-12-11T12:49:51.040Z,64.40
2022-12-11T12:52:43.048Z,63.70
2022-12-11T12:55:32.849Z,64.10
2022-12-11T12:58:28.119Z,63.70
2022-12-11T13:01:20.391Z,63.00
2022-12-11T13:04:20.859Z,58.50
2022-12-11T13:07:20.537Z,59.10
2022-12-11T13:10:26.199Z,58.70
2022-12-11T13:13:34.211Z,57.40
2022-12-11T13:16:28.859Z,56.50
2022-12-11T13:19:29.509Z,50.50
2022-12-11T13:22:26.118Z,49.70
2022-12-11T13:25:28.529Z,44.50
2022-12-11T13:28:33.238Z,43.40
2022-12-11T13:31:37.787Z,47.00
2022-12-11T13:34:28.200Z,51.50
2022-12-11T13:37:28.499Z,49.00
2022-12-11T13:40:21.187Z,46.30
2022-12-11T13:43:21.718Z,48.30
2022-12-11T13:46:13.081Z,50.10
2022-12-11T13:49:04.058Z,53.10
2022-12-11T13:51:55.769Z,52.50
2022-12-11T13:54:49.288Z,55.10
2022-12-11T13:57:47.388Z,54.40
2022-12-11T14:00:37.777Z,52.70
2022-12-11T14:03:27.128Z,51.40
2022-12-11T14:06:18.825Z,53.00
2022-12-11T14:09:10.079Z,53.10
2022-12-11T14:11:59.447Z,53.90
2022-12-11T14:14:52.772Z,50.90
2022-12-11T14:17:51.381Z,51.80
2022-12-11T14:20:40.908Z,53.80
2022-12-11T14:23:31.087Z,52.90
2022-12-11T14:26:22.808Z,53.60
2022-12-11T14:29:26.118Z,53.50
2022-12-11T14:32:21.761Z,55.00
2022-12-11T14:35:26.689Z,54.10
2022-12-11T14:38:19.679Z,50.50
2022-12-11T14:41:14.878Z,50.60
2022-12-11T14:44:06.638Z,51.90
2022-12-11T14:47:00.589Z,53.30
2022-12-11T14:49:52.749Z,54.60
2022-12-11T14:52:48.361Z,55.70
2022-12-11T14:55:39.399Z,56.50
2022-12-11T14:58:29.221Z,57.30
2022-12-11T15:01:27.329Z,57.20
2022-12-11T15:04:29.250Z,58.60
2022-12-11T15:07:22.577Z,59.50
2022-12-11T15:10:36.997Z,60.70
2022-12-11T15:13:26.742Z,62.10
2022-12-11T15:16:16.527Z,62.90
2022-12-11T15:19:05.669Z,63.40
2022-12-11T15:21:54.868Z,63.80
2022-12-11T15:24:46.569Z,64.40
2022-12-11T15:27:38.961Z,65.10
2022-12-11T15:30:33.982Z,64.20
2022-12-11T15:33:22.879Z,65.80
2022-12-11T15:36:25.559Z,66.60
2022-12-11T15:39:14.373Z,67.80
2022-12-11T15:42:08.283Z,67.90
2022-12-11T15:44:59.538Z,68.30
2022-12-11T15:47:49.781Z,69.20
2022-12-11T15:50:38.719Z,69.80
2022-12-11T15:53:27.589Z,69.40
2022-12-11T15:56:17.331Z,69.50
2022-12-11T15:59:08.142Z,69.40
2022-12-11T16:01:58.412Z,69.20
2022-12-11T16:04:47.237Z,69.90
2022-12-11T16:07:36.119Z,70.30
2022-12-11T16:10:25.043Z,70.40
2022-12-11T16:13:14.793Z,70.60
2022-12-11T16:16:03.930Z,71.50
2022-12-11T16:18:54.221Z,72.10
2022-12-11T16:21:43.049Z,72.50
2022-12-11T16:24:32.178Z,72.50
2022-12-11T16:27:23.207Z,72.90
2022-12-11T16:30:13.340Z,73.30
2022-12-11T16:33:04.792Z,73.60
2022-12-11T16:35:59.649Z,73.90
2022-12-11T16:38:53.537Z,74.40
2022-12-11T16:41:43.098Z,74.90
2022-12-11T16:44:31.952Z,74.00
2022-12-11T16:47:20.748Z,74.40
2022-12-11T16:50:10.269Z,75.10
2022-12-11T16:53:00.679Z,75.70
2022-12-11T16:55:49.560Z,76.50
2022-12-11T16:58:38.490Z,77.60
2022-12-11T17:01:27.406Z,77.70
2022-12-11T17:04:16.279Z,78.00
2022-12-11T17:07:05.548Z,78.50
2022-12-11T17:09:55.759Z,78.90
2022-12-11T17:12:44.539Z,79.70
2022-12-11T17:15:33.994Z,80.00
2022-12-11T17:18:22.889Z,79.90
2022-12-11T17:21:13.862Z,80.10
2022-12-11T17:24:02.781Z,80.20
2022-12-11T17:26:53.037Z,80.20
2022-12-11T17:29:41.863Z,80.10
2022-12-11T17:32:30.709Z,79.60
2022-12-11T17:35:19.723Z,79.60
2022-12-11T17:38:08.569Z,80.20
2022-12-11T17:40:57.699Z,81.00
2022-12-11T17:43:48.158Z,80.40
2022-12-11T17:46:37.085Z,79.80
2022-12-11T17:49:25.989Z,80.90
2022-12-11T17:52:14.848Z,82.40
2022-12-11T17:55:03.680Z,82.60
2022-12-11T17:57:52.571Z,83.30
2022-12-11T18:00:44.090Z,83.50
2022-12-11T18:03:32.946Z,83.60
2022-12-11T18:06:23.189Z,84.00
2022-12-11T18:09:12.119Z,83.00
2022-12-11T18:12:01.168Z,82.20
2022-12-11T18:14:49.948Z,81.60
2022-12-11T18:17:40.219Z,82.20
2022-12-11T18:20:29.110Z,82.60
2022-12-11T18:23:17.955Z,83.30
2022-12-11T18:26:07.090Z,83.00
2022-12-11T18:28:56.060Z,82.50
2022-12-11T18:31:47.572Z,82.30
2022-12-11T18:34:37.809Z,82.40
2022-12-11T18:37:28.250Z,82.70
2022-12-11T18:40:17.178Z,83.30
2022-12-11T18:43:05.998Z,83.80
2022-12-11T18:45:54.770Z,81.90
2022-12-11T18:48:44.610Z,80.70
2022-12-11T18:51:34.818Z,81.30
2022-12-11T18:54:23.638Z,80.60
2022-12-11T18:57:12.712Z,81.40
2022-12-11T19:00:07.467Z,82.30
2022-12-11T19:02:56.419Z,83.10
2022-12-11T19:05:45.312Z,83.40
2022-12-11T19:08:35.581Z,83.20
2022-12-11T19:11:26.918Z,83.30
2022-12-11T19:14:15.872Z,83.40
2022-12-11T19:17:04.707Z,83.80
2022-12-11T19:19:53.584Z,84.00
2022-12-11T19:22:42.439Z,83.50
2022-12-11T19:25:33.128Z,83.80
2022-12-11T19:28:22.099Z,84.50
2022-12-11T19:31:12.404Z,84.20
2022-12-11T19:34:01.743Z,84.90
2022-12-11T19:36:50.848Z,85.40
2022-12-11T19:39:40.582Z,85.60
2022-12-11T19:42:30.885Z,85.10
2022-12-11T19:45:20.031Z,85.70
2022-12-11T19:48:08.838Z,85.90
2022-12-11T19:50:57.928Z,85.60
2022-12-11T19:53:47.881Z,87.20
2022-12-11T19:56:36.849Z,86.30
2022-12-11T19:59:27.111Z,87.50
2022-12-11T20:02:16.027Z,88.10
2022-12-11T20:05:05.139Z,88.60
2022-12-11T20:07:54.092Z,88.20
2022-12-11T20:10:43.049Z,88.50
2022-12-11T20:13:32.401Z,88.00
2022-12-11T20:16:39.459Z,87.20
2022-12-11T20:19:32.423Z,86.30
2022-12-11T20:22:21.268Z,86.90
2022-12-11T20:25:10.940Z,87.40
2022-12-11T20:27:59.958Z,86.20
2022-12-11T20:30:50.139Z,84.40
2022-12-11T20:33:40.391Z,84.20
2022-12-11T20:36:29.298Z,84.50
2022-12-11T20:39:18.111Z,85.00
2022-12-11T20:42:07.018Z,87.00
2022-12-11T20:44:56.239Z,86.20
2022-12-11T20:47:45.072Z,86.40
2022-12-11T20:50:35.361Z,85.30
2022-12-11T20:53:24.140Z,84.50
2022-12-11T20:56:14.748Z,83.50
2022-12-11T20:59:03.638Z,84.50
2022-12-11T21:01:52.487Z,84.40
2022-12-11T21:04:42.650Z,84.30
2022-12-11T21:07:32.921Z,84.70
2022-12-11T21:10:21.962Z,84.40
2022-12-11T21:13:10.921Z,83.90
2022-12-11T21:16:05.756Z,84.70
2022-12-11T21:18:54.562Z,85.60
2022-12-11T21:21:45.389Z,85.50
2022-12-11T21:24:35.619Z,86.10
2022-12-11T21:27:24.799Z,86.10
2022-12-11T21:30:14.899Z,86.30
2022-12-11T21:33:03.708Z,86.50
2022-12-11T21:35:56.858Z,85.90
2022-12-11T21:38:47.138Z,84.40
2022-12-11T21:41:37.475Z,84.20
2022-12-11T21:45:37.177Z,84.20
2022-12-11T21:47:35.128Z,84.60
2022-12-11T21:50:24.002Z,85.20
2022-12-11T21:53:12.838Z,86.00
2022-12-11T21:56:01.801Z,86.30
2022-12-11T21:58:53.198Z,86.60
2022-12-11T22:01:44.013Z,87.40
2022-12-11T22:04:32.861Z,86.60
2022-12-11T22:07:21.733Z,85.40
2022-12-11T22:10:11.387Z,84.80
2022-12-11T22:13:00.161Z,83.70
2022-12-11T22:15:50.778Z,83.50
2022-12-11T22:18:39.878Z,84.20
2022-12-11T22:21:28.758Z,84.20
2022-12-11T22:24:17.577Z,84.70
2022-12-11T22:27:06.649Z,85.40
2022-12-11T22:29:55.520Z,85.20
2022-12-11T22:32:45.871Z,85.20
2022-12-11T22:35:34.748Z,85.40
2022-12-11T22:38:23.627Z,85.90
2022-12-11T22:41:21.886Z,86.70
2022-12-11T22:44:15.857Z,88.80
2022-12-11T22:47:04.698Z,88.30
2022-12-11T22:49:55.038Z,88.30
2022-12-11T22:52:44.947Z,88.80
2022-12-11T22:55:34.608Z,89.00
2022-12-11T22:58:23.498Z,89.00
2022-12-11T23:01:14.448Z,89.40
2022-12-11T23:04:03.337Z,89.10
2022-12-11T23:06:54.189Z,89.00
2022-12-11T23:09:43.557Z,89.60
2022-12-11T23:12:32.438Z,89.70
2022-12-11T23:15:21.316Z,90.50
2022-12-11T23:18:10.246Z,89.30
2022-12-11T23:20:59.028Z,88.80
2022-12-11T23:23:49.490Z,89.20
2022-12-11T23:26:38.788Z,89.20
2022-12-11T23:29:27.647Z,89.70
2022-12-11T23:32:16.458Z,89.10
2022-12-11T23:35:06.029Z,88.60
2022-12-11T23:37:54.889Z,88.10
2022-12-11T23:40:45.266Z,87.90
2022-12-11T23:43:35.917Z,88.30
2022-12-11T23:46:26.344Z,88.60
2022-12-11T23:49:15.308Z,88.80
2022-12-11T23:52:04.408Z,88.10
2022-12-11T23:54:53.218Z,87.60
2022-12-11T23:57:43.519Z,87.00
